Cacak, Serbia
Current Conditions -  °F | °C
As of 10:30 AM on Thursday 23 Oct 2014 (Local Time) from LYKV Reporting Station
Broken Clouds Broken Clouds  
Wind Chill: 41°   Ceiling: 1000
Heat Index: 41°   Visibility: 6mi
Dew Point: 41°   Wind: 1mph
Humidity: 100%   Direction: NA
Pressure: 29.71"   Gusts: NA
Location:  43.9°N, 20.33°E
Report Text: LYKV 230830Z VRB01KT 9999 BKN010 BKN027 05/05 Q1006 NOSIG
Loading
Personal Weather Stations






























Interactive Weather Map
Tropical Storm Tracking
New forecast layout! Learn more

10-Day Weather Forecast

Advertisements
Track Severe Weather on mobile